M/V MiSS Lillie — WDH5807 — position and weather

sailwx.info

Track history (hours):
 
Tides and Currents Weather Stations Pressure Air Temp Water Temp Dewpoint Dewpoint Depression Visibility Wind Speed Wind Dir Waves Ship Positions

M/V MiSS Lillie

Owner: Louisiana Marine Operators LLC., Broussard, LA. More information available from US FCC via Universal Licensing System and Coast Guard Vessel Documentation Center.

Last reported at 2018-Jan-25 05:50 UTC. Time now 2018-Feb-19 08:05 UTC.
Position N 29°34' W 090°29'.
Warning: this ship's position is 25 days out of date.

Length 24 m; draft 3 m.

Type: Towing. MMSI: 367631680.

Date/timePositionNaut miles runAvg speedWind from/ knotsBaromVisibWave heightAir tempDewpointWater temp
2018-Jan-25 05:50N 29°34' W 090°29'1 3.3
2018-Jan-25 05:25N 29°34' W 090°30'3 6.1
2018-Jan-25 05:00N 29°34' W 090°33'3 5.4
2018-Jan-25 04:30N 29°35' W 090°36'2 4.6
2018-Jan-25 04:00N 29°35' W 090°39'2 4.1
2018-Jan-25 03:30N 29°36' W 090°41'2 3.4
2018-Jan-25 03:00N 29°36' W 090°43'2 4.2
2018-Jan-25 02:30N 29°34' W 090°44'2 3.5
2018-Jan-25 02:00N 29°33' W 090°45'0 0.0
2018-Jan-25 01:30N 29°33' W 090°45'0 0.0
2018-Jan-25 01:00N 29°33' W 090°45'1 2.0
2018-Jan-25 00:30N 29°32' W 090°47'3 6.2
2018-Jan-24 23:59N 29°32' W 090°50'67 4.0
2018-Jan-24 07:26N 29°48' W 092°05'2 3.8
2018-Jan-24 07:00N 29°48' W 092°06'3 5.1
2018-Jan-24 06:30N 29°47' W 092°09'2 3.4
2018-Jan-24 06:01N 29°47' W 092°11'2 3.8
2018-Jan-24 05:30N 29°47' W 092°13'2 3.7
2018-Jan-24 05:00N 29°48' W 092°15'1 1.7
2018-Jan-24 04:30N 29°49' W 092°16'43 2.1
2018-Jan-23 08:19N 29°56' W 093°05'2 4.9
2018-Jan-23 07:50N 29°56' W 093°07'2 5.1
2018-Jan-23 07:31N 29°56' W 093°09'1 1.8
2018-Jan-23 07:01N 29°57' W 093°10'2 4.5
2018-Jan-23 06:31N 29°58' W 093°12'2 3.8
2018-Jan-23 06:00N 29°60' W 093°13'2 3.5
2018-Jan-23 05:31N 30°01' W 093°14'1 1.6
2018-Jan-23 05:01N 30°02' W 093°15'0 0.0
2018-Jan-23 04:31N 30°02' W 093°15'2 4.3
2018-Jan-23 04:01N 30°04' W 093°16'2 4.3
2018-Jan-23 03:31N 30°05' W 093°18'1 1.9
2018-Jan-23 03:01N 30°06' W 093°18'0 0.1
2018-Jan-23 02:31N 30°06' W 093°18'0 0.0
2018-Jan-23 02:01N 30°06' W 093°18'0 0.1
2018-Jan-23 01:31N 30°06' W 093°18'0 0.1
2018-Jan-23 01:01N 30°06' W 093°18'1 2.4
2018-Jan-23 00:30N 30°06' W 093°20'3 6.6
2018-Jan-23 00:01N 30°09' W 093°20'2 3.7
2018-Jan-22 23:29N 30°11' W 093°18'0 0.0
2018-Jan-22 23:00N 30°11' W 093°18'0 0.0
2018-Jan-22 22:31N 30°11' W 093°18'0 0.0
2018-Jan-22 22:00N 30°11' W 093°18'0 0.0
2018-Jan-22 21:31N 30°11' W 093°18'0 0.0
2018-Jan-22 21:01N 30°11' W 093°18'0 0.0
2018-Jan-22 20:30N 30°11' W 093°18'0 0.0
2018-Jan-22 20:00N 30°11' W 093°18'0 0.0
2018-Jan-22 19:31N 30°11' W 093°18'0 0.0
2018-Jan-22 19:01N 30°11' W 093°18'0 0.0
2018-Jan-22 18:31N 30°11' W 093°18'0 0.0
2018-Jan-22 18:00N 30°11' W 093°18'0 0.0
2018-Jan-22 17:30N 30°11' W 093°18'0 0.0
2018-Jan-22 17:00N 30°11' W 093°18'0 0.0
2018-Jan-22 16:31N 30°11' W 093°18'0 0.0
2018-Jan-22 16:00N 30°11' W 093°18'0 0.0
2018-Jan-22 15:30N 30°11' W 093°18'0 0.0
2018-Jan-22 15:01N 30°11' W 093°18'0 0.0
2018-Jan-22 14:30N 30°11' W 093°18'0 0.0
2018-Jan-22 14:00N 30°11' W 093°18'0 0.0
2018-Jan-22 13:30N 30°11' W 093°18'0 0.0
2018-Jan-22 13:00N 30°11' W 093°18'0 0.5
2018-Jan-22 12:30N 30°11' W 093°19'0 0.1
2018-Jan-22 12:00N 30°11' W 093°19'0 0.0
2018-Jan-22 11:29N 30°11' W 093°18'0 0.1
2018-Jan-22 11:00N 30°11' W 093°18'0 0.1
2018-Jan-22 10:30N 30°11' W 093°19'0 0.0
2018-Jan-22 10:00N 30°11' W 093°19'0 0.0
2018-Jan-22 09:26N 30°11' W 093°18'0 0.0
2018-Jan-22 09:00N 30°11' W 093°19'0 0.0
2018-Jan-22 08:30N 30°11' W 093°19'0 0.0
2018-Jan-22 08:00N 30°11' W 093°19'0 0.0
2018-Jan-22 07:30N 30°11' W 093°19'0 0.0
2018-Jan-22 06:59N 30°11' W 093°19'0 0.0
2018-Jan-22 06:30N 30°11' W 093°19'0 0.0
2018-Jan-22 06:00N 30°11' W 093°19'0 0.0
2018-Jan-22 05:30N 30°11' W 093°19'0 0.0
2018-Jan-22 05:00N 30°11' W 093°19'0 0.0
2018-Jan-22 04:30N 30°11' W 093°19'0 0.0
2018-Jan-22 04:00N 30°11' W 093°19'0 0.2
2018-Jan-22 03:30N 30°11' W 093°19'3 6.3
2018-Jan-22 03:00N 30°13' W 093°16'0 0.1
2018-Jan-22 01:13N 30°13' W 093°16'0 0.3
2018-Jan-22 00:55N 30°13' W 093°16'0 0.1
2018-Jan-22 00:28N 30°13' W 093°16'0 0.1
2018-Jan-21 23:59N 30°13' W 093°15'0 0.1
2018-Jan-21 23:29N 30°13' W 093°16'1 1.5
2018-Jan-21 23:00N 30°12' W 093°16'2 3.7
2018-Jan-21 22:31N 30°13' W 093°18'1 1.5
2018-Jan-21 22:00N 30°13' W 093°19'0 0.7
2018-Jan-21 21:30N 30°12' W 093°19'1 1.2
2018-Jan-21 21:00N 30°13' W 093°19'2 3.9
2018-Jan-21 20:30N 30°12' W 093°17'1 2.5
2018-Jan-21 19:59N 30°13' W 093°15'0 0.1
2018-Jan-21 19:13N 30°13' W 093°16'0 1.9
2018-Jan-21 19:00N 30°13' W 093°16'2 4.7
2018-Jan-21 18:30N 30°12' W 093°18'1 1.4
2018-Jan-21 18:01N 30°12' W 093°19'0 0.4
2018-Jan-21 17:30N 30°12' W 093°19'0 0.0
2018-Jan-21 16:59N 30°12' W 093°19'0 0.0
2018-Jan-21 16:30N 30°12' W 093°19'0 0.6
2018-Jan-21 16:00N 30°12' W 093°19'0 0.4
2018-Jan-21 15:30N 30°13' W 093°19'1 1.1
2018-Jan-21 15:01N 30°12' W 093°19'0 0.7
2018-Jan-21 14:30N 30°12' W 093°19'0 0.0
2018-Jan-21 14:00N 30°12' W 093°19'0 0.0
2018-Jan-21 13:30N 30°12' W 093°19'0 0.0
2018-Jan-21 13:00N 30°12' W 093°19'0 0.0
2018-Jan-21 12:30N 30°12' W 093°19'0 0.0
2018-Jan-21 12:00N 30°12' W 093°19'0 0.0
2018-Jan-21 11:30N 30°12' W 093°19'0 0.0
2018-Jan-21 10:56N 30°12' W 093°19'0 0.0
2018-Jan-21 10:30N 30°12' W 093°19'0 0.0
2018-Jan-21 09:59N 30°12' W 093°19'0 0.0
2018-Jan-21 09:30N 30°12' W 093°19'0 0.0
2018-Jan-21 08:59N 30°12' W 093°19'0 0.0
2018-Jan-21 08:30N 30°12' W 093°19'0 0.0
2018-Jan-21 08:00N 30°12' W 093°19'0 0.0
2018-Jan-21 07:27N 30°12' W 093°19'0 0.0
2018-Jan-21 06:57N 30°12' W 093°19'0 0.0
2018-Jan-21 06:29N 30°12' W 093°19'0 0.0
2018-Jan-21 06:00N 30°12' W 093°19'0 0.3
2018-Jan-21 05:31N 30°13' W 093°19'0 1.0
2018-Jan-21 05:00N 30°12' W 093°19'1 2.2
2018-Jan-21 04:30N 30°12' W 093°17'2 3.7
2018-Jan-21 04:00N 30°13' W 093°15'1 2.5
2018-Jan-21 03:30N 30°12' W 093°17'2 3.4
2018-Jan-21 03:01N 30°13' W 093°19'1 1.6
2018-Jan-21 02:30N 30°12' W 093°19'0 0.0
2018-Jan-21 02:00N 30°12' W 093°19'0 1.0
2018-Jan-21 01:30N 30°13' W 093°19'1 1.0
2018-Jan-21 01:00N 30°12' W 093°18'1 1.9
2018-Jan-21 00:31N 30°12' W 093°17'2 3.1
2018-Jan-21 00:00N 30°13' W 093°16'0 0.5
2018-Jan-20 23:04N 30°13' W 093°16'0 0.9
2018-Jan-20 22:59N 30°13' W 093°16'2 4.1
2018-Jan-20 22:31N 30°12' W 093°18'1 2.2
2018-Jan-20 22:00N 30°13' W 093°19'0 0.9
2018-Jan-20 21:31N 30°12' W 093°19'0 0.9
2018-Jan-20 21:00N 30°13' W 093°19'1 1.2
2018-Jan-20 20:30N 30°12' W 093°18'1 2.2
2018-Jan-20 20:01N 30°12' W 093°17'2 3.6
2018-Jan-20 19:30N 30°13' W 093°15'1 2.5
2018-Jan-20 19:00N 30°12' W 093°17'2 3.6
2018-Jan-20 18:31N 30°13' W 093°19'1 1.2
2018-Jan-20 18:01N 30°12' W 093°19'0 0.4
2018-Jan-20 17:30N 30°12' W 093°19'0 0.0
2018-Jan-20 16:55N 30°12' W 093°19'0 0.0
2018-Jan-20 16:29N 30°12' W 093°19'0 0.0
2018-Jan-20 16:00N 30°12' W 093°19'0 0.9
2018-Jan-20 15:30N 30°13' W 093°19'1 1.1
2018-Jan-20 15:00N 30°12' W 093°19'0 0.1
2018-Jan-20 14:30N 30°12' W 093°19'0 0.1
2018-Jan-20 14:00N 30°12' W 093°19'1 1.5
2018-Jan-20 13:30N 30°13' W 093°19'1 2.3
2018-Jan-20 13:00N 30°12' W 093°18'2 3.8
2018-Jan-20 12:30N 30°13' W 093°16'0 0.2
2018-Jan-20 12:01N 30°13' W 093°15'2 3.9
2018-Jan-20 11:30N 30°12' W 093°18'1 2.8
2018-Jan-20 11:00N 30°12' W 093°19'0 0.0
2018-Jan-20 10:30N 30°13' W 093°19'1 1.3
2018-Jan-20 10:00N 30°12' W 093°18'2 3.3
2018-Jan-20 09:30N 30°12' W 093°17'1 2.1
2018-Jan-20 09:00N 30°13' W 093°15'2 4.5
2018-Jan-20 08:30N 30°13' W 093°18'1 2.3
2018-Jan-20 08:01N 30°12' W 093°19'0 0.5
2018-Jan-20 07:30N 30°12' W 093°19'1 1.2
2018-Jan-20 07:00N 30°13' W 093°19'1 2.1
2018-Jan-20 06:30N 30°12' W 093°18'2 3.9
2018-Jan-20 06:00N 30°13' W 093°15'0 0.1
2018-Jan-20 05:30N 30°13' W 093°15'0 0.0
2018-Jan-20 05:00N 30°13' W 093°15'3 5.3
2018-Jan-20 04:30N 30°11' W 093°18'3 6.2
2018-Jan-20 04:00N 30°09' W 093°20'2 4.4
2018-Jan-20 03:30N 30°07' W 093°20'1 2.9
2018-Jan-20 03:00N 30°06' W 093°18'1 2.1
2018-Jan-20 02:30N 30°05' W 093°18'1 1.6
2018-Jan-20 02:00N 30°05' W 093°17'1 2.5
2018-Jan-20 01:30N 30°04' W 093°16'0 0.6
2018-Jan-20 01:00N 30°03' W 093°16'0 0.0
2018-Jan-20 00:30N 30°03' W 093°16'0 0.0
2018-Jan-20 00:00N 30°03' W 093°16'0 0.1
2018-Jan-19 23:30N 30°03' W 093°16'0 0.3
2018-Jan-19 23:00N 30°03' W 093°16'1 2.5
2018-Jan-19 22:29N 30°02' W 093°15'2 3.9
2018-Jan-19 22:00N 30°01' W 093°14'1 2.5
2018-Jan-19 21:30N 29°60' W 093°13'1 2.4
2018-Jan-19 21:00N 29°59' W 093°12'3 4.5
2018-Jan-19 20:23N 29°57' W 093°10'45 3.6
2018-Jan-19 07:45N 29°50' W 092°18'2 3.6
2018-Jan-19 07:18N 29°49' W 092°17'1 3.8
2018-Jan-19 07:00N 29°49' W 092°16'2 3.1
2018-Jan-19 06:30N 29°48' W 092°14'2 3.2
2018-Jan-19 06:00N 29°47' W 092°13'0 0.5
2018-Jan-19 05:30N 29°47' W 092°12'1 1.3
2018-Jan-19 05:00N 29°47' W 092°12'1 1.6
2018-Jan-19 04:30N 29°47' W 092°11'2 3.8
2018-Jan-19 04:00N 29°47' W 092°09'2 3.1
2018-Jan-19 03:30N 29°48' W 092°07'  
Track history (hours):
 
Tides and Currents Weather Stations Pressure Air Temp Water Temp Dewpoint Dewpoint Depression Visibility Wind Speed Wind Dir Waves Ship Positions

M/V MiSS Lillie

Owner: Louisiana Marine Operators LLC., Broussard, LA. More information available from US FCC via Universal Licensing System and Coast Guard Vessel Documentation Center.

Last reported at 2018-Jan-25 05:50 UTC. Time now 2018-Feb-19 08:05 UTC.
Position N 29°34' W 090°29'.
Warning: this ship's position is 25 days out of date.

Length 24 m; draft 3 m.

Type: Towing. MMSI: 367631680.

Date/timePositionNaut miles runAvg speedWind from/ knotsBaromVisibWave heightAir tempDewpointWater temp
2018-Jan-25 05:50N 29°34' W 090°29'1 3.3
2018-Jan-25 05:25N 29°34' W 090°30'3 6.1
2018-Jan-25 05:00N 29°34' W 090°33'3 5.4
2018-Jan-25 04:30N 29°35' W 090°36'2 4.6
2018-Jan-25 04:00N 29°35' W 090°39'2 4.1
2018-Jan-25 03:30N 29°36' W 090°41'2 3.4
2018-Jan-25 03:00N 29°36' W 090°43'2 4.2
2018-Jan-25 02:30N 29°34' W 090°44'2 3.5
2018-Jan-25 02:00N 29°33' W 090°45'0 0.0
2018-Jan-25 01:30N 29°33' W 090°45'0 0.0
2018-Jan-25 01:00N 29°33' W 090°45'1 2.0
2018-Jan-25 00:30N 29°32' W 090°47'3 6.2
2018-Jan-24 23:59N 29°32' W 090°50'67 4.0
2018-Jan-24 07:26N 29°48' W 092°05'2 3.8
2018-Jan-24 07:00N 29°48' W 092°06'3 5.1
2018-Jan-24 06:30N 29°47' W 092°09'2 3.4
2018-Jan-24 06:01N 29°47' W 092°11'2 3.8
2018-Jan-24 05:30N 29°47' W 092°13'2 3.7
2018-Jan-24 05:00N 29°48' W 092°15'1 1.7
2018-Jan-24 04:30N 29°49' W 092°16'43 2.1
2018-Jan-23 08:19N 29°56' W 093°05'2 4.9
2018-Jan-23 07:50N 29°56' W 093°07'2 5.1
2018-Jan-23 07:31N 29°56' W 093°09'1 1.8
2018-Jan-23 07:01N 29°57' W 093°10'2 4.5
2018-Jan-23 06:31N 29°58' W 093°12'2 3.8
2018-Jan-23 06:00N 29°60' W 093°13'2 3.5
2018-Jan-23 05:31N 30°01' W 093°14'1 1.6
2018-Jan-23 05:01N 30°02' W 093°15'0 0.0
2018-Jan-23 04:31N 30°02' W 093°15'2 4.3
2018-Jan-23 04:01N 30°04' W 093°16'2 4.3
2018-Jan-23 03:31N 30°05' W 093°18'1 1.9
2018-Jan-23 03:01N 30°06' W 093°18'0 0.1
2018-Jan-23 02:31N 30°06' W 093°18'0 0.0
2018-Jan-23 02:01N 30°06' W 093°18'0 0.1
2018-Jan-23 01:31N 30°06' W 093°18'0 0.1
2018-Jan-23 01:01N 30°06' W 093°18'1 2.4
2018-Jan-23 00:30N 30°06' W 093°20'3 6.6
2018-Jan-23 00:01N 30°09' W 093°20'2 3.7
2018-Jan-22 23:29N 30°11' W 093°18'0 0.0
2018-Jan-22 23:00N 30°11' W 093°18'0 0.0
2018-Jan-22 22:31N 30°11' W 093°18'0 0.0
2018-Jan-22 22:00N 30°11' W 093°18'0 0.0
2018-Jan-22 21:31N 30°11' W 093°18'0 0.0
2018-Jan-22 21:01N 30°11' W 093°18'0 0.0
2018-Jan-22 20:30N 30°11' W 093°18'0 0.0
2018-Jan-22 20:00N 30°11' W 093°18'0 0.0
2018-Jan-22 19:31N 30°11' W 093°18'0 0.0
2018-Jan-22 19:01N 30°11' W 093°18'0 0.0
2018-Jan-22 18:31N 30°11' W 093°18'0 0.0
2018-Jan-22 18:00N 30°11' W 093°18'0 0.0
2018-Jan-22 17:30N 30°11' W 093°18'0 0.0
2018-Jan-22 17:00N 30°11' W 093°18'0 0.0
2018-Jan-22 16:31N 30°11' W 093°18'0 0.0
2018-Jan-22 16:00N 30°11' W 093°18'0 0.0
2018-Jan-22 15:30N 30°11' W 093°18'0 0.0
2018-Jan-22 15:01N 30°11' W 093°18'0 0.0
2018-Jan-22 14:30N 30°11' W 093°18'0 0.0
2018-Jan-22 14:00N 30°11' W 093°18'0 0.0
2018-Jan-22 13:30N 30°11' W 093°18'0 0.0
2018-Jan-22 13:00N 30°11' W 093°18'0 0.5
2018-Jan-22 12:30N 30°11' W 093°19'0 0.1
2018-Jan-22 12:00N 30°11' W 093°19'0 0.0
2018-Jan-22 11:29N 30°11' W 093°18'0 0.1
2018-Jan-22 11:00N 30°11' W 093°18'0 0.1
2018-Jan-22 10:30N 30°11' W 093°19'0 0.0
2018-Jan-22 10:00N 30°11' W 093°19'0 0.0
2018-Jan-22 09:26N 30°11' W 093°18'0 0.0
2018-Jan-22 09:00N 30°11' W 093°19'0 0.0
2018-Jan-22 08:30N 30°11' W 093°19'0 0.0
2018-Jan-22 08:00N 30°11' W 093°19'0 0.0
2018-Jan-22 07:30N 30°11' W 093°19'0 0.0
2018-Jan-22 06:59N 30°11' W 093°19'0 0.0
2018-Jan-22 06:30N 30°11' W 093°19'0 0.0
2018-Jan-22 06:00N 30°11' W 093°19'0 0.0
2018-Jan-22 05:30N 30°11' W 093°19'0 0.0
2018-Jan-22 05:00N 30°11' W 093°19'0 0.0
2018-Jan-22 04:30N 30°11' W 093°19'0 0.0
2018-Jan-22 04:00N 30°11' W 093°19'0 0.2
2018-Jan-22 03:30N 30°11' W 093°19'3 6.3
2018-Jan-22 03:00N 30°13' W 093°16'0 0.1
2018-Jan-22 01:13N 30°13' W 093°16'0 0.3
2018-Jan-22 00:55N 30°13' W 093°16'0 0.1
2018-Jan-22 00:28N 30°13' W 093°16'0 0.1
2018-Jan-21 23:59N 30°13' W 093°15'0 0.1
2018-Jan-21 23:29N 30°13' W 093°16'1 1.5
2018-Jan-21 23:00N 30°12' W 093°16'2 3.7
2018-Jan-21 22:31N 30°13' W 093°18'1 1.5
2018-Jan-21 22:00N 30°13' W 093°19'0 0.7
2018-Jan-21 21:30N 30°12' W 093°19'1 1.2
2018-Jan-21 21:00N 30°13' W 093°19'2 3.9
2018-Jan-21 20:30N 30°12' W 093°17'1 2.5
2018-Jan-21 19:59N 30°13' W 093°15'0 0.1
2018-Jan-21 19:13N 30°13' W 093°16'0 1.9
2018-Jan-21 19:00N 30°13' W 093°16'2 4.7
2018-Jan-21 18:30N 30°12' W 093°18'1 1.4
2018-Jan-21 18:01N 30°12' W 093°19'0 0.4
2018-Jan-21 17:30N 30°12' W 093°19'0 0.0
2018-Jan-21 16:59N 30°12' W 093°19'0 0.0
2018-Jan-21 16:30N 30°12' W 093°19'0 0.6
2018-Jan-21 16:00N 30°12' W 093°19'0 0.4
2018-Jan-21 15:30N 30°13' W 093°19'1 1.1
2018-Jan-21 15:01N 30°12' W 093°19'0 0.7
2018-Jan-21 14:30N 30°12' W 093°19'0 0.0
2018-Jan-21 14:00N 30°12' W 093°19'0 0.0
2018-Jan-21 13:30N 30°12' W 093°19'0 0.0
2018-Jan-21 13:00N 30°12' W 093°19'0 0.0
2018-Jan-21 12:30N 30°12' W 093°19'0 0.0
2018-Jan-21 12:00N 30°12' W 093°19'0 0.0
2018-Jan-21 11:30N 30°12' W 093°19'0 0.0
2018-Jan-21 10:56N 30°12' W 093°19'0 0.0
2018-Jan-21 10:30N 30°12' W 093°19'0 0.0
2018-Jan-21 09:59N 30°12' W 093°19'0 0.0
2018-Jan-21 09:30N 30°12' W 093°19'0 0.0
2018-Jan-21 08:59N 30°12' W 093°19'0 0.0
2018-Jan-21 08:30N 30°12' W 093°19'0 0.0
2018-Jan-21 08:00N 30°12' W 093°19'0 0.0
2018-Jan-21 07:27N 30°12' W 093°19'0 0.0
2018-Jan-21 06:57N 30°12' W 093°19'0 0.0
2018-Jan-21 06:29N 30°12' W 093°19'0 0.0
2018-Jan-21 06:00N 30°12' W 093°19'0 0.3
2018-Jan-21 05:31N 30°13' W 093°19'0 1.0
2018-Jan-21 05:00N 30°12' W 093°19'1 2.2
2018-Jan-21 04:30N 30°12' W 093°17'2 3.7
2018-Jan-21 04:00N 30°13' W 093°15'1 2.5
2018-Jan-21 03:30N 30°12' W 093°17'2 3.4
2018-Jan-21 03:01N 30°13' W 093°19'1 1.6
2018-Jan-21 02:30N 30°12' W 093°19'0 0.0
2018-Jan-21 02:00N 30°12' W 093°19'0 1.0
2018-Jan-21 01:30N 30°13' W 093°19'1 1.0
2018-Jan-21 01:00N 30°12' W 093°18'1 1.9
2018-Jan-21 00:31N 30°12' W 093°17'2 3.1
2018-Jan-21 00:00N 30°13' W 093°16'0 0.5
2018-Jan-20 23:04N 30°13' W 093°16'0 0.9
2018-Jan-20 22:59N 30°13' W 093°16'2 4.1
2018-Jan-20 22:31N 30°12' W 093°18'1 2.2
2018-Jan-20 22:00N 30°13' W 093°19'0 0.9
2018-Jan-20 21:31N 30°12' W 093°19'0 0.9
2018-Jan-20 21:00N 30°13' W 093°19'1 1.2
2018-Jan-20 20:30N 30°12' W 093°18'1 2.2
2018-Jan-20 20:01N 30°12' W 093°17'2 3.6
2018-Jan-20 19:30N 30°13' W 093°15'1 2.5
2018-Jan-20 19:00N 30°12' W 093°17'2 3.6
2018-Jan-20 18:31N 30°13' W 093°19'1 1.2
2018-Jan-20 18:01N 30°12' W 093°19'0 0.4
2018-Jan-20 17:30N 30°12' W 093°19'0 0.0
2018-Jan-20 16:55N 30°12' W 093°19'0 0.0
2018-Jan-20 16:29N 30°12' W 093°19'0 0.0
2018-Jan-20 16:00N 30°12' W 093°19'0 0.9
2018-Jan-20 15:30N 30°13' W 093°19'1 1.1
2018-Jan-20 15:00N 30°12' W 093°19'0 0.1
2018-Jan-20 14:30N 30°12' W 093°19'0 0.1
2018-Jan-20 14:00N 30°12' W 093°19'1 1.5
2018-Jan-20 13:30N 30°13' W 093°19'1 2.3
2018-Jan-20 13:00N 30°12' W 093°18'2 3.8
2018-Jan-20 12:30N 30°13' W 093°16'0 0.2
2018-Jan-20 12:01N 30°13' W 093°15'2 3.9
2018-Jan-20 11:30N 30°12' W 093°18'1 2.8
2018-Jan-20 11:00N 30°12' W 093°19'0 0.0
2018-Jan-20 10:30N 30°13' W 093°19'1 1.3
2018-Jan-20 10:00N 30°12' W 093°18'2 3.3
2018-Jan-20 09:30N 30°12' W 093°17'1 2.1
2018-Jan-20 09:00N 30°13' W 093°15'2 4.5
2018-Jan-20 08:30N 30°13' W 093°18'1 2.3
2018-Jan-20 08:01N 30°12' W 093°19'0 0.5
2018-Jan-20 07:30N 30°12' W 093°19'1 1.2
2018-Jan-20 07:00N 30°13' W 093°19'1 2.1
2018-Jan-20 06:30N 30°12' W 093°18'2 3.9
2018-Jan-20 06:00N 30°13' W 093°15'0 0.1
2018-Jan-20 05:30N 30°13' W 093°15'0 0.0
2018-Jan-20 05:00N 30°13' W 093°15'3 5.3
2018-Jan-20 04:30N 30°11' W 093°18'3 6.2
2018-Jan-20 04:00N 30°09' W 093°20'2 4.4
2018-Jan-20 03:30N 30°07' W 093°20'1 2.9
2018-Jan-20 03:00N 30°06' W 093°18'1 2.1
2018-Jan-20 02:30N 30°05' W 093°18'1 1.6
2018-Jan-20 02:00N 30°05' W 093°17'1 2.5
2018-Jan-20 01:30N 30°04' W 093°16'0 0.6
2018-Jan-20 01:00N 30°03' W 093°16'0 0.0
2018-Jan-20 00:30N 30°03' W 093°16'0 0.0
2018-Jan-20 00:00N 30°03' W 093°16'0 0.1
2018-Jan-19 23:30N 30°03' W 093°16'0 0.3
2018-Jan-19 23:00N 30°03' W 093°16'1 2.5
2018-Jan-19 22:29N 30°02' W 093°15'2 3.9
2018-Jan-19 22:00N 30°01' W 093°14'1 2.5
2018-Jan-19 21:30N 29°60' W 093°13'1 2.4
2018-Jan-19 21:00N 29°59' W 093°12'3 4.5
2018-Jan-19 20:23N 29°57' W 093°10'45 3.6
2018-Jan-19 07:45N 29°50' W 092°18'2 3.6
2018-Jan-19 07:18N 29°49' W 092°17'1 3.8
2018-Jan-19 07:00N 29°49' W 092°16'2 3.1
2018-Jan-19 06:30N 29°48' W 092°14'2 3.2
2018-Jan-19 06:00N 29°47' W 092°13'0 0.5
2018-Jan-19 05:30N 29°47' W 092°12'1 1.3
2018-Jan-19 05:00N 29°47' W 092°12'1 1.6
2018-Jan-19 04:30N 29°47' W 092°11'2 3.8
2018-Jan-19 04:00N 29°47' W 092°09'2 3.1
2018-Jan-19 03:30N 29°48' W 092°07'  

Dump ship's entire track history